createdAt,value
2018-12-30T00:02:30.983Z,101247.72
2018-12-30T00:05:04.419Z,101250.06
2018-12-30T00:07:39.007Z,101255.75
2018-12-30T00:10:15.560Z,101262.23
2018-12-30T00:12:51.796Z,101268.96
2018-12-30T00:15:28.278Z,101264.69
2018-12-30T00:18:01.379Z,101255.65
2018-12-30T00:20:36.317Z,101278.11
2018-12-30T00:23:11.877Z,101265.40
2018-12-30T00:25:47.451Z,101271.00
2018-12-30T00:28:20.496Z,101278.90
2018-12-30T00:30:54.319Z,101268.00
2018-12-30T00:33:28.801Z,101270.11
2018-12-30T00:36:05.515Z,101281.27
2018-12-30T00:38:38.729Z,101292.05
2018-12-30T00:41:18.892Z,101298.91
2018-12-30T00:43:53.032Z,101313.69
2018-12-30T00:46:25.929Z,101324.78
2018-12-30T00:48:58.846Z,101328.48
2018-12-30T00:51:32.284Z,101337.62
2018-12-30T00:54:05.439Z,101336.33
2018-12-30T00:56:38.406Z,101341.19
2018-12-30T00:59:12.780Z,101341.30
2018-12-30T01:01:46.652Z,101339.38
2018-12-30T01:04:22.317Z,101344.67
2018-12-30T01:06:59.245Z,101361.09
2018-12-30T01:09:33.333Z,101357.80
2018-12-30T01:12:06.195Z,101359.97
2018-12-30T01:14:39.854Z,101363.78
2018-12-30T01:17:12.832Z,101369.83
2018-12-30T01:19:45.800Z,101370.89
2018-12-30T01:22:19.560Z,101371.95
2018-12-30T01:24:52.755Z,101370.44
2018-12-30T01:27:25.993Z,101374.52
2018-12-30T01:29:59.011Z,101379.52
2018-12-30T01:32:33.404Z,101382.94
2018-12-30T01:35:06.796Z,101383.98
2018-12-30T01:37:39.848Z,101395.48
2018-12-30T01:40:14.836Z,101388.09
2018-12-30T01:42:47.856Z,101388.60
2018-12-30T01:45:20.860Z,101392.38
2018-12-30T01:47:56.344Z,101403.20
2018-12-30T01:50:29.559Z,101394.18
2018-12-30T01:53:03.523Z,101400.61
2018-12-30T01:55:37.708Z,101393.44
2018-12-30T01:58:10.787Z,101399.31
2018-12-30T02:00:44.143Z,101393.77
2018-12-30T02:03:17.491Z,101414.16
2018-12-30T02:05:51.813Z,101421.67
2018-12-30T02:08:24.975Z,101422.00
2018-12-30T02:10:58.531Z,101421.47
2018-12-30T02:13:32.497Z,101417.62
2018-12-30T02:16:05.584Z,101415.84
2018-12-30T02:18:42.038Z,101421.48
2018-12-30T02:21:15.010Z,101431.73
2018-12-30T02:23:49.817Z,101434.32
2018-12-30T02:26:23.405Z,101457.95
2018-12-30T02:28:56.333Z,101454.74
2018-12-30T02:31:29.391Z,101446.44
2018-12-30T02:34:02.843Z,101451.06
2018-12-30T02:36:35.692Z,101459.15
2018-12-30T02:39:08.533Z,101454.54
2018-12-30T02:41:41.916Z,101468.16
2018-12-30T02:44:16.621Z,101447.34
2018-12-30T02:46:49.678Z,101450.14
2018-12-30T02:49:23.114Z,101447.69
2018-12-30T02:51:56.691Z,101446.63
2018-12-30T02:54:29.649Z,101453.40
2018-12-30T02:57:02.672Z,101449.74
2018-12-30T02:59:35.568Z,101442.50
2018-12-30T03:02:08.576Z,101438.83
2018-12-30T03:04:41.357Z,101460.28
2018-12-30T03:07:15.807Z,101472.27
2018-12-30T03:09:48.743Z,101462.62
2018-12-30T03:12:21.815Z,101468.50
2018-12-30T03:14:56.157Z,101453.56
2018-12-30T03:17:29.180Z,101471.56
2018-12-30T03:20:02.965Z,101461.47
2018-12-30T03:22:37.421Z,101456.09
2018-12-30T03:25:14.776Z,101457.66
2018-12-30T03:27:48.014Z,101460.41
2018-12-30T03:30:22.911Z,101459.08
2018-12-30T03:32:55.782Z,101447.73
2018-12-30T03:35:29.280Z,101448.03
2018-12-30T03:38:02.754Z,101442.05
2018-12-30T03:40:35.790Z,101442.84
2018-12-30T03:43:09.397Z,101465.13
2018-12-30T03:45:42.635Z,101467.29
2018-12-30T03:48:15.659Z,101467.96
2018-12-30T03:50:48.432Z,101479.23
2018-12-30T03:53:21.811Z,101480.54
2018-12-30T03:55:55.312Z,101481.11
2018-12-30T03:58:28.447Z,101476.12
2018-12-30T04:01:01.926Z,101487.60
2018-12-30T04:03:34.927Z,101482.97
2018-12-30T04:06:07.883Z,101494.37
2018-12-30T04:08:43.660Z,101500.92
2018-12-30T04:11:16.482Z,101497.05
2018-12-30T04:13:49.336Z,101505.08
2018-12-30T04:16:22.720Z,101506.03
2018-12-30T04:18:56.507Z,101489.64
2018-12-30T04:21:29.505Z,101510.14
2018-12-30T04:24:02.976Z,101461.73
2018-12-30T04:26:35.850Z,101482.81
2018-12-30T04:29:09.198Z,101490.03
2018-12-30T04:31:42.692Z,101495.89
2018-12-30T04:34:15.693Z,101499.41
2018-12-30T04:36:48.940Z,101507.69
2018-12-30T04:39:22.272Z,101506.20
2018-12-30T04:41:55.537Z,101520.70
2018-12-30T04:44:28.477Z,101483.33
2018-12-30T04:47:02.830Z,101527.06
2018-12-30T04:49:36.166Z,101517.29
2018-12-30T04:52:08.988Z,101523.89
2018-12-30T04:54:43.465Z,101520.45
2018-12-30T04:57:16.488Z,101529.13
2018-12-30T04:59:49.451Z,101536.84
2018-12-30T05:02:23.212Z,101533.27
2018-12-30T05:04:56.671Z,101536.74
2018-12-30T05:07:29.560Z,101497.61
2018-12-30T05:10:03.400Z,101522.84
2018-12-30T05:12:36.425Z,101524.17
2018-12-30T05:15:09.301Z,101554.56
2018-12-30T05:17:43.751Z,101562.29
2018-12-30T05:20:16.721Z,101584.19
2018-12-30T05:22:49.689Z,101543.22
2018-12-30T05:25:24.104Z,101518.41
2018-12-30T05:27:56.916Z,101522.47
2018-12-30T05:30:30.448Z,101530.66
2018-12-30T05:33:05.468Z,101525.88
2018-12-30T05:35:38.300Z,101544.80
2018-12-30T05:38:11.111Z,101554.59
2018-12-30T05:40:44.489Z,101550.80
2018-12-30T05:43:17.290Z,101567.46
2018-12-30T05:45:50.301Z,101548.86
2018-12-30T05:48:24.440Z,101550.38
2018-12-30T05:50:57.505Z,101527.28
2018-12-30T05:53:30.476Z,101535.33
2018-12-30T05:56:04.471Z,101545.59
2018-12-30T05:58:37.848Z,101551.53
2018-12-30T06:01:10.751Z,101544.58
2018-12-30T06:03:45.128Z,101552.31
2018-12-30T06:06:18.159Z,101553.66
2018-12-30T06:08:51.816Z,101564.72
2018-12-30T06:11:26.360Z,101561.56
2018-12-30T06:13:59.168Z,101572.34
2018-12-30T06:16:32.840Z,101568.25
2018-12-30T06:19:07.920Z,101580.83
2018-12-30T06:21:40.811Z,101589.50
2018-12-30T06:24:13.768Z,101586.95
2018-12-30T06:26:47.852Z,101589.61
2018-12-30T06:29:26.001Z,101606.72
2018-12-30T06:32:00.319Z,101593.77
2018-12-30T06:34:33.697Z,101598.25
2018-12-30T06:37:06.724Z,101594.87
2018-12-30T06:39:39.683Z,101597.56
2018-12-30T06:42:13.124Z,101600.59
2018-12-30T06:44:46.045Z,101605.99
2018-12-30T06:47:19.133Z,101597.84
2018-12-30T06:49:52.441Z,101626.73
2018-12-30T06:52:25.267Z,101615.70
2018-12-30T06:54:58.392Z,101630.86
2018-12-30T06:57:32.008Z,101637.75
2018-12-30T07:00:08.009Z,101646.03
2018-12-30T07:02:40.902Z,101651.38
2018-12-30T07:05:14.267Z,101651.52
2018-12-30T07:07:47.403Z,101644.22
2018-12-30T07:10:20.240Z,101650.55
2018-12-30T07:12:53.696Z,101655.84
2018-12-30T07:15:27.319Z,101665.45
2018-12-30T07:18:00.265Z,101663.82
2018-12-30T07:20:33.612Z,101677.37
2018-12-30T07:23:06.698Z,101673.69
2018-12-30T07:25:39.676Z,101678.83
2018-12-30T07:28:14.812Z,101670.45
2018-12-30T07:30:50.252Z,101667.41
2018-12-30T07:33:24.237Z,101664.17
2018-12-30T07:35:58.137Z,101673.20
2018-12-30T07:38:32.609Z,101665.77
2018-12-30T07:41:06.466Z,101683.34
2018-12-30T07:43:40.307Z,101669.79
2018-12-30T07:46:13.425Z,101662.05
2018-12-30T07:48:46.579Z,101663.28
2018-12-30T07:51:19.861Z,101661.91
2018-12-30T07:53:53.315Z,101663.52
2018-12-30T07:56:26.107Z,101667.20
2018-12-30T07:58:59.531Z,101669.16
2018-12-30T08:01:32.474Z,101666.16
2018-12-30T08:04:05.487Z,101677.00
2018-12-30T08:06:39.921Z,101676.46
2018-12-30T08:09:14.072Z,101685.88
2018-12-30T08:11:47.728Z,101687.81
2018-12-30T08:14:22.103Z,101690.02
2018-12-30T08:16:56.509Z,101687.86
2018-12-30T08:19:29.532Z,101701.14
2018-12-30T08:22:03.862Z,101702.62
2018-12-30T08:24:36.732Z,101704.22
2018-12-30T08:27:11.669Z,101703.41
2018-12-30T08:29:44.554Z,101705.67
2018-12-30T08:32:19.107Z,101713.05
2018-12-30T08:34:53.752Z,101711.49
2018-12-30T08:37:26.637Z,101703.12
2018-12-30T08:40:01.426Z,101696.34
2018-12-30T08:42:42.149Z,101684.53
2018-12-30T08:45:16.408Z,101675.73
2018-12-30T08:47:49.792Z,101684.84
2018-12-30T08:50:22.817Z,101694.70
2018-12-30T08:52:55.756Z,101690.42
2018-12-30T08:55:29.549Z,101688.77
2018-12-30T08:58:05.503Z,101716.38
2018-12-30T09:00:38.415Z,101707.30
2018-12-30T09:03:13.108Z,101710.36
2018-12-30T09:05:46.909Z,101710.61
2018-12-30T09:08:19.893Z,101716.78
2018-12-30T09:10:55.282Z,101710.34
2018-12-30T09:13:28.305Z,101711.20
2018-12-30T09:16:02.371Z,101712.38
2018-12-30T09:18:35.861Z,101708.73
2018-12-30T09:21:11.551Z,101700.02
2018-12-30T09:23:45.409Z,101706.88
2018-12-30T09:26:19.720Z,101703.94
2018-12-30T09:28:52.697Z,101692.55
2018-12-30T09:31:32.722Z,101697.50
2018-12-30T09:34:07.276Z,101710.89
2018-12-30T09:36:43.247Z,101711.11
2018-12-30T09:39:17.993Z,101721.57
2018-12-30T09:41:56.059Z,101716.07
2018-12-30T09:44:36.868Z,101708.53
2018-12-30T09:47:16.529Z,101710.56
2018-12-30T09:49:59.629Z,101715.13
2018-12-30T09:52:39.698Z,101727.18
2018-12-30T09:55:13.603Z,101739.41
2018-12-30T09:57:47.642Z,101740.48
2018-12-30T10:00:21.171Z,101748.52
2018-12-30T10:02:54.104Z,101749.76
2018-12-30T10:05:27.379Z,101744.86
2018-12-30T10:08:01.785Z,101747.89
2018-12-30T10:10:36.002Z,101752.61
2018-12-30T10:13:11.736Z,101749.71
2018-12-30T10:15:47.200Z,101754.80
2018-12-30T10:18:20.560Z,101749.11
2018-12-30T10:20:53.703Z,101761.63
2018-12-30T10:23:28.152Z,101765.52
2018-12-30T10:26:01.134Z,101771.44
2018-12-30T10:28:34.062Z,101771.25
2018-12-30T10:31:08.511Z,101770.38
2018-12-30T10:33:43.385Z,101771.23
2018-12-30T10:36:17.040Z,101771.44
2018-12-30T10:38:50.271Z,101773.93
2018-12-30T10:41:24.006Z,101769.55
2018-12-30T10:44:01.536Z,101762.48
2018-12-30T10:46:37.680Z,101763.64
2018-12-30T10:49:11.717Z,101757.22
2018-12-30T10:51:45.612Z,101750.29
2018-12-30T10:54:20.480Z,101748.83
2018-12-30T10:56:53.620Z,101743.52
2018-12-30T10:59:28.394Z,101744.64
2018-12-30T11:02:01.450Z,101747.55
2018-12-30T11:04:35.236Z,101740.26
2018-12-30T11:07:09.149Z,101729.30
2018-12-30T11:09:42.303Z,101722.20
2018-12-30T11:12:15.236Z,101715.33
2018-12-30T11:14:48.699Z,101724.28
2018-12-30T11:17:23.529Z,101728.61
2018-12-30T11:19:58.593Z,101721.17
2018-12-30T11:22:39.663Z,101725.20
2018-12-30T11:25:12.695Z,101717.55
2018-12-30T11:27:47.239Z,101725.48
2018-12-30T11:30:21.767Z,101725.48
2018-12-30T11:32:55.588Z,101722.97
2018-12-30T11:35:29.180Z,101711.65
2018-12-30T11:38:05.101Z,101712.97
2018-12-30T11:40:38.820Z,101705.70
2018-12-30T11:43:12.002Z,101702.92
2018-12-30T11:45:48.201Z,101712.49
2018-12-30T11:48:22.085Z,101697.00
2018-12-30T11:50:57.432Z,101697.97
2018-12-30T11:53:34.551Z,101708.96
2018-12-30T11:56:09.424Z,101705.99
2018-12-30T11:58:44.196Z,101700.70
2018-12-30T12:01:18.120Z,101710.05
2018-12-30T12:03:54.087Z,101711.69
2018-12-30T12:06:42.491Z,101713.00
2018-12-30T12:09:16.276Z,101704.79
2018-12-30T12:11:52.203Z,101702.73
2018-12-30T12:14:28.903Z,101705.06
2018-12-30T12:17:01.845Z,101699.19
2018-12-30T12:19:35.467Z,101708.33
2018-12-30T12:22:08.469Z,101706.82
2018-12-30T12:24:42.764Z,101691.05
2018-12-30T12:27:15.640Z,101690.81
2018-12-30T12:29:48.755Z,101682.00
2018-12-30T12:32:23.504Z,101671.28
2018-12-30T12:34:57.475Z,101677.67
2018-12-30T12:37:35.930Z,101663.77
2018-12-30T12:40:10.546Z,101662.20
2018-12-30T12:42:56.473Z,101673.46
2018-12-30T12:45:34.182Z,101677.00
2018-12-30T12:48:08.429Z,101680.52
2018-12-30T12:50:43.770Z,101679.90
2018-12-30T12:53:20.618Z,101686.05
2018-12-30T12:55:58.818Z,101684.40
2018-12-30T12:58:34.173Z,101680.50
2018-12-30T13:01:17.959Z,101685.59
2018-12-30T13:04:04.071Z,101681.77
2018-12-30T13:06:47.427Z,101687.76
2018-12-30T13:09:25.077Z,101685.38
2018-12-30T13:12:08.897Z,101679.62
2018-12-30T13:14:44.383Z,101683.78
2018-12-30T13:17:19.120Z,101683.63
2018-12-30T13:19:55.369Z,101676.59
2018-12-30T13:22:28.937Z,101669.94
2018-12-30T13:25:06.365Z,101668.47
2018-12-30T13:27:41.140Z,101672.41
2018-12-30T13:30:17.637Z,101675.34
2018-12-30T13:32:50.680Z,101682.20
2018-12-30T13:35:24.923Z,101684.28
2018-12-30T13:37:58.492Z,101679.82
2018-12-30T13:40:32.240Z,101687.39
2018-12-30T13:43:07.366Z,101688.30
2018-12-30T13:45:45.584Z,101698.16
2018-12-30T13:48:19.369Z,101696.83
2018-12-30T13:50:53.273Z,101699.03
2018-12-30T13:53:29.807Z,101700.69
2018-12-30T13:56:03.427Z,101701.06
2018-12-30T13:58:37.045Z,101705.42
2018-12-30T14:01:11.772Z,101712.05
2018-12-30T14:03:49.576Z,101710.84
2018-12-30T14:06:22.706Z,101708.70
2018-12-30T14:08:58.747Z,101708.75
2018-12-30T14:11:34.148Z,101706.66
2018-12-30T14:14:07.254Z,101712.07
2018-12-30T14:16:42.660Z,101708.48
2018-12-30T14:19:16.215Z,101708.83
2018-12-30T14:21:51.493Z,101715.74
2018-12-30T14:24:24.918Z,101719.20
2018-12-30T14:27:00.005Z,101723.38
2018-12-30T14:29:36.234Z,101719.55
2018-12-30T14:32:11.506Z,101726.69
2018-12-30T14:34:47.272Z,101709.65
2018-12-30T14:37:22.160Z,101711.03
2018-12-30T14:39:55.246Z,101702.34
2018-12-30T14:42:30.263Z,101696.95
2018-12-30T14:45:06.787Z,101692.84
2018-12-30T14:47:43.498Z,101690.09
2018-12-30T14:50:18.878Z,101691.93
2018-12-30T14:52:52.330Z,101695.44
2018-12-30T14:55:25.296Z,101691.92
2018-12-30T14:57:58.455Z,101688.39
2018-12-30T15:00:34.157Z,101692.73
2018-12-30T15:03:07.238Z,101681.06
2018-12-30T15:05:40.562Z,101679.64
2018-12-30T15:08:14.925Z,101679.09
2018-12-30T15:10:52.171Z,101676.78
2018-12-30T15:13:32.847Z,101679.86
2018-12-30T15:16:05.715Z,101694.20
2018-12-30T15:18:39.425Z,101702.36
2018-12-30T15:21:16.738Z,101701.54
2018-12-30T15:23:51.824Z,101703.41
2018-12-30T15:26:25.916Z,101704.23
2018-12-30T15:29:00.743Z,101706.78
2018-12-30T15:31:33.734Z,101696.20
2018-12-30T15:34:07.700Z,101686.63
2018-12-30T15:36:43.061Z,101683.05
2018-12-30T15:39:17.262Z,101672.29
2018-12-30T15:41:52.213Z,101671.28
2018-12-30T15:44:27.264Z,101671.28
2018-12-30T15:47:01.628Z,101669.25
2018-12-30T15:49:35.158Z,101675.28
2018-12-30T15:52:12.267Z,101670.95
2018-12-30T15:54:46.898Z,101675.22
2018-12-30T15:57:23.494Z,101673.35
2018-12-30T16:00:00.964Z,101663.21
2018-12-30T16:02:39.677Z,101661.23
2018-12-30T16:05:41.196Z,101654.63
2018-12-30T16:08:23.836Z,101641.78
2018-12-30T16:11:11.878Z,101647.17
2018-12-30T16:14:13.993Z,101640.70
2018-12-30T16:16:54.145Z,101645.06
2018-12-30T16:19:28.530Z,101641.59
2018-12-30T16:22:06.223Z,101645.27
2018-12-30T16:24:42.398Z,101642.52
2018-12-30T16:27:17.569Z,101641.38
2018-12-30T16:29:52.379Z,101640.86
2018-12-30T16:32:27.183Z,101638.84
2018-12-30T16:35:00.182Z,101637.09
2018-12-30T16:37:35.746Z,101644.59
2018-12-30T16:40:11.472Z,101637.61
2018-12-30T16:42:47.461Z,101646.72
2018-12-30T16:45:22.110Z,101650.78
2018-12-30T16:47:55.132Z,101653.69
2018-12-30T16:50:28.375Z,101658.16
2018-12-30T16:53:03.436Z,101655.13
2018-12-30T16:55:36.278Z,101659.34
2018-12-30T16:58:13.829Z,101657.58
2018-12-30T17:00:48.152Z,101661.98
2018-12-30T17:03:21.652Z,101654.89
2018-12-30T17:05:57.262Z,101657.25
2018-12-30T17:08:30.293Z,101646.09
2018-12-30T17:11:06.716Z,101651.84
2018-12-30T17:13:40.233Z,101661.00
2018-12-30T17:16:14.023Z,101660.27
2018-12-30T17:18:55.800Z,101660.22
2018-12-30T17:21:29.832Z,101648.88
2018-12-30T17:24:05.246Z,101648.81
2018-12-30T17:26:39.567Z,101642.23
2018-12-30T17:29:13.619Z,101640.52
2018-12-30T17:31:47.190Z,101629.91
2018-12-30T17:34:23.109Z,101626.30
2018-12-30T17:36:57.360Z,101622.34
2018-12-30T17:39:30.721Z,101633.63
2018-12-30T17:42:05.199Z,101636.63
2018-12-30T17:44:38.544Z,101639.41
2018-12-30T17:47:11.542Z,101638.53
2018-12-30T17:49:45.426Z,101625.75
2018-12-30T17:52:20.103Z,101609.08
2018-12-30T17:54:53.102Z,101601.91
2018-12-30T17:57:26.794Z,101595.95
2018-12-30T18:00:00.001Z,101597.05
2018-12-30T18:02:33.454Z,101602.80
2018-12-30T18:05:09.130Z,101608.02
2018-12-30T18:07:43.033Z,101609.61
2018-12-30T18:10:18.613Z,101609.52
2018-12-30T18:12:53.980Z,101610.03
2018-12-30T18:15:28.832Z,101614.11
2018-12-30T18:18:05.865Z,101615.28
2018-12-30T18:20:40.435Z,101620.28
2018-12-30T18:23:15.600Z,101622.99
2018-12-30T18:25:49.546Z,101624.62
2018-12-30T18:28:24.297Z,101627.89
2018-12-30T18:31:02.567Z,101628.67
2018-12-30T18:33:36.420Z,101623.87
2018-12-30T18:36:09.350Z,101624.80
2018-12-30T18:38:44.474Z,101620.98
2018-12-30T18:41:17.531Z,101616.34
2018-12-30T18:43:52.513Z,101620.70
2018-12-30T18:46:26.864Z,101625.48
2018-12-30T18:48:59.803Z,101619.97
2018-12-30T18:51:34.336Z,101622.47
2018-12-30T18:54:13.133Z,101609.61
2018-12-30T18:56:47.602Z,101602.78
2018-12-30T18:59:21.038Z,101608.27
2018-12-30T19:01:55.895Z,101602.98
2018-12-30T19:04:29.493Z,101597.14
2018-12-30T19:07:04.457Z,101615.04
2018-12-30T19:09:39.065Z,101607.38
2018-12-30T19:12:12.243Z,101611.92
2018-12-30T19:14:46.387Z,101613.66
2018-12-30T19:17:21.832Z,101602.09
2018-12-30T19:19:56.041Z,101600.19
2018-12-30T19:22:33.475Z,101604.88
2018-12-30T19:25:07.075Z,101601.89
2018-12-30T19:27:41.129Z,101607.98
2018-12-30T19:30:16.812Z,101609.05
2018-12-30T19:32:51.301Z,101603.93
2018-12-30T19:35:25.341Z,101607.75
2018-12-30T19:37:59.929Z,101606.56
2018-12-30T19:40:33.891Z,101607.48
2018-12-30T19:43:06.919Z,101604.62
2018-12-30T19:45:40.569Z,101592.83
2018-12-30T19:48:14.248Z,101599.88
2018-12-30T19:50:53.899Z,101604.99
2018-12-30T19:53:29.263Z,101608.29
2018-12-30T19:56:04.758Z,101608.12
2018-12-30T19:58:38.802Z,101610.68
2018-12-30T20:01:13.178Z,101617.61
2018-12-30T20:03:47.986Z,101617.07
2018-12-30T20:06:22.938Z,101621.04
2018-12-30T20:08:56.531Z,101621.95
2018-12-30T20:11:29.803Z,101621.77
2018-12-30T20:14:05.835Z,101617.19
2018-12-30T20:16:41.225Z,101623.26
2018-12-30T20:19:15.680Z,101623.64
2018-12-30T20:21:50.890Z,101619.48
2018-12-30T20:24:32.836Z,101619.44
2018-12-30T20:27:13.817Z,101613.06
2018-12-30T20:29:50.712Z,101613.13
2018-12-30T20:32:28.585Z,101606.13
2018-12-30T20:35:19.881Z,101603.56
2018-12-30T20:37:58.281Z,101602.71
2018-12-30T20:40:34.716Z,101600.98
2018-12-30T20:43:19.973Z,101600.98
2018-12-30T20:45:59.382Z,101595.87
2018-12-30T20:48:36.516Z,101596.75
2018-12-30T20:51:11.890Z,101603.53
2018-12-30T20:53:48.622Z,101600.11
2018-12-30T20:56:23.566Z,101599.30
2018-12-30T20:59:03.926Z,101598.88
2018-12-30T21:01:40.788Z,101597.95
2018-12-30T21:04:18.195Z,101596.80
2018-12-30T21:06:54.382Z,101598.22
2018-12-30T21:09:33.310Z,101602.23
2018-12-30T21:12:10.612Z,101598.72
2018-12-30T21:14:47.521Z,101591.51
2018-12-30T21:17:24.608Z,101593.09
2018-12-30T21:19:59.706Z,101591.36
2018-12-30T21:22:35.426Z,101590.23
2018-12-30T21:25:34.289Z,101591.20
2018-12-30T21:28:13.854Z,101588.34
2018-12-30T21:30:48.436Z,101589.78
2018-12-30T21:33:24.868Z,101591.36
2018-12-30T21:36:03.294Z,101590.47
2018-12-30T21:38:40.563Z,101589.77
2018-12-30T21:41:20.950Z,101578.99
2018-12-30T21:44:03.715Z,101577.94
2018-12-30T21:46:43.652Z,101579.23
2018-12-30T21:49:24.632Z,101577.05
2018-12-30T21:52:08.569Z,101577.45
2018-12-30T21:55:04.171Z,101571.69
2018-12-30T21:57:41.143Z,101580.20
2018-12-30T22:00:19.380Z,101576.31
2018-12-30T22:02:56.918Z,101576.81
2018-12-30T22:05:33.564Z,101575.53
2018-12-30T22:08:13.295Z,101576.67
2018-12-30T22:10:51.989Z,101579.57
2018-12-30T22:13:32.936Z,101584.75
2018-12-30T22:16:10.258Z,101580.67
2018-12-30T22:18:47.884Z,101576.08
2018-12-30T22:21:21.820Z,101581.69
2018-12-30T22:23:56.809Z,101582.14
2018-12-30T22:26:31.037Z,101582.45
2018-12-30T22:29:11.232Z,101583.78
2018-12-30T22:31:45.475Z,101590.36
2018-12-30T22:34:31.656Z,101596.60
2018-12-30T22:37:09.791Z,101601.30
2018-12-30T22:39:47.898Z,101598.77
2018-12-30T22:42:22.104Z,101599.07
2018-12-30T22:44:56.036Z,101597.41
2018-12-30T22:47:29.598Z,101600.73
2018-12-30T22:50:04.840Z,101600.19
2018-12-30T22:52:38.627Z,101603.25
2018-12-30T22:55:18.596Z,101606.20
2018-12-30T22:57:54.700Z,101604.33
2018-12-30T23:00:36.685Z,101604.01
2018-12-30T23:03:12.758Z,101602.59
2018-12-30T23:05:48.706Z,101602.81
2018-12-30T23:08:24.330Z,101601.03
2018-12-30T23:11:00.982Z,101604.27
2018-12-30T23:13:34.279Z,101609.78
2018-12-30T23:16:08.592Z,101606.56
2018-12-30T23:18:46.449Z,101599.31
2018-12-30T23:21:20.125Z,101601.73
2018-12-30T23:23:53.797Z,101600.66
2018-12-30T23:26:27.160Z,101597.58
2018-12-30T23:29:01.101Z,101599.20
2018-12-30T23:31:35.591Z,101591.95
2018-12-30T23:34:08.672Z,101588.04
2018-12-30T23:36:41.525Z,101585.48
2018-12-30T23:39:14.935Z,101586.70
2018-12-30T23:41:48.490Z,101586.39
2018-12-30T23:44:22.885Z,101586.37
2018-12-30T23:46:56.115Z,101590.19
2018-12-30T23:49:29.413Z,101592.34
2018-12-30T23:52:03.275Z,101592.70
2018-12-30T23:54:37.084Z,101594.62
2018-12-30T23:57:11.201Z,101596.60
2018-12-30T23:59:44.172Z,101598.71
